Terminal Aerodrome Forecast
Issued by NWS New Orleans/Baton Rouge, LA

Home | Current Version | Previous Version | Text Only | Print | Product List | Glossary On
Versions: 1 2 3 4 5 6 7 8 9 10 11 12 13 14 15 16
000
FTUS44 KLIX 170531
TAFNEW
TAF
KNEW 170531Z 1706/1806 16008KT 6SM BR SCT018 BKN250
     FM170900 16006KT 3SM BR BKN015
     FM171100 16006KT 2SM BR BKN008
     FM171300 16006KT 1SM BR BKN003
     FM171500 16006KT P6SM BKN008
     FM171900 17007KT P6SM BKN050=

USA.gov is the U.S. government's official web portal to all federal, state and local government web resources and services.